sensor_id;sensor_type;location;lat;lon;timestamp;pressure;altitude;pressure_sealevel;temperature;humidity
73240;BME280;61452;40.054;4.110;2022-11-15T00:02:20;101761.16;;;21.41;51.67
73240;BME280;61452;40.054;4.110;2022-11-15T00:07:41;101754.84;;;21.42;51.58
73240;BME280;61452;40.054;4.110;2022-11-15T00:13:15;101744.88;;;21.44;51.58
73240;BME280;61452;40.054;4.110;2022-11-15T00:18:35;101748.50;;;21.43;51.53
73240;BME280;61452;40.054;4.110;2022-11-15T00:23:56;101742.19;;;21.44;51.65
73240;BME280;61452;40.054;4.110;2022-11-15T00:29:16;101738.69;;;21.43;51.82
73240;BME280;61452;40.054;4.110;2022-11-15T00:34:37;101735.03;;;21.44;51.87
73240;BME280;61452;40.054;4.110;2022-11-15T00:39:58;101720.00;;;21.43;51.90
73240;BME280;61452;40.054;4.110;2022-11-15T00:45:19;101719.03;;;21.44;51.94
73240;BME280;61452;40.054;4.110;2022-11-15T00:50:40;101725.22;;;21.45;52.16
73240;BME280;61452;40.054;4.110;2022-11-15T00:56:00;101726.19;;;21.44;52.04
73240;BME280;61452;40.054;4.110;2022-11-15T01:01:21;101705.22;;;21.39;52.03
73240;BME280;61452;40.054;4.110;2022-11-15T01:06:42;101722.56;;;21.45;52.09
73240;BME280;61452;40.054;4.110;2022-11-15T01:12:03;101715.41;;;21.45;52.18
73240;BME280;61452;40.054;4.110;2022-11-15T01:17:24;101711.03;;;21.44;51.95
73240;BME280;61452;40.054;4.110;2022-11-15T01:22:45;101715.41;;;21.45;52.05
73240;BME280;61452;40.054;4.110;2022-11-15T01:28:06;101703.97;;;21.43;52.23
73240;BME280;61452;40.054;4.110;2022-11-15T01:33:28;101693.56;;;21.40;52.27
73240;BME280;61452;40.054;4.110;2022-11-15T01:38:57;101699.00;;;21.38;52.13
73240;BME280;61452;40.054;4.110;2022-11-15T01:50:15;101676.59;;;21.41;51.99
73240;BME280;61452;40.054;4.110;2022-11-15T01:55:37;101674.88;;;21.40;52.01
73240;BME280;61452;40.054;4.110;2022-11-15T02:00:57;101662.63;;;21.37;52.13
73240;BME280;61452;40.054;4.110;2022-11-15T02:06:18;101658.00;;;21.39;51.91
73240;BME280;61452;40.054;4.110;2022-11-15T02:11:40;101657.03;;;21.41;51.81
73240;BME280;61452;40.054;4.110;2022-11-15T02:34:11;101625.97;;;21.39;51.84
73240;BME280;61452;40.054;4.110;2022-11-15T02:45:07;101613.47;;;21.40;51.80
73240;BME280;61452;40.054;4.110;2022-11-15T02:50:31;101610.09;;;21.38;51.96
73240;BME280;61452;40.054;4.110;2022-11-15T02:55:53;101608.25;;;21.38;51.78
73240;BME280;61452;40.054;4.110;2022-11-15T03:01:38;101600.13;;;21.40;51.63
73240;BME280;61452;40.054;4.110;2022-11-15T03:07:11;101598.44;;;21.39;51.79
73240;BME280;61452;40.054;4.110;2022-11-15T03:12:58;101588.00;;;21.36;51.70
73240;BME280;61452;40.054;4.110;2022-11-15T03:18:21;101586.31;;;21.35;51.65
73240;BME280;61452;40.054;4.110;2022-11-15T03:23:47;101579.88;;;21.37;51.63
73240;BME280;61452;40.054;4.110;2022-11-15T03:29:21;101575.38;;;21.38;51.68
73240;BME280;61452;40.054;4.110;2022-11-15T03:35:04;101569.06;;;21.39;51.71
73240;BME280;61452;40.054;4.110;2022-11-15T03:46:08;101561.31;;;21.36;52.03
73240;BME280;61452;40.054;4.110;2022-11-15T03:51:31;101557.66;;;21.37;51.78
73240;BME280;61452;40.054;4.110;2022-11-15T03:56:52;101547.84;;;21.37;51.63
73240;BME280;61452;40.054;4.110;2022-11-15T04:02:13;101543.25;;;21.39;51.88
73240;BME280;61452;40.054;4.110;2022-11-15T04:07:34;101547.84;;;21.37;51.80
73240;BME280;61452;40.054;4.110;2022-11-15T04:12:55;101542.63;;;21.36;51.76
73240;BME280;61452;40.054;4.110;2022-11-15T04:18:15;101539.84;;;21.37;51.85
73240;BME280;61452;40.054;4.110;2022-11-15T04:23:36;101536.44;;;21.35;51.69
73240;BME280;61452;40.054;4.110;2022-11-15T04:29:26;101535.34;;;21.38;51.78
73240;BME280;61452;40.054;4.110;2022-11-15T04:34:56;101528.31;;;21.37;51.79
73240;BME280;61452;40.054;4.110;2022-11-15T04:40:16;101525.75;;;21.35;51.96
73240;BME280;61452;40.054;4.110;2022-11-15T04:45:37;101518.59;;;21.36;51.79
73240;BME280;61452;40.054;4.110;2022-11-15T04:50:57;101523.81;;;21.37;51.97
73240;BME280;61452;40.054;4.110;2022-11-15T04:56:18;101518.47;;;21.37;52.02
73240;BME280;61452;40.054;4.110;2022-11-15T05:01:39;101511.44;;;21.36;51.99
73240;BME280;61452;40.054;4.110;2022-11-15T05:07:04;101509.75;;;21.35;52.08
73240;BME280;61452;40.054;4.110;2022-11-15T05:12:24;101497.25;;;21.36;51.99
73240;BME280;61452;40.054;4.110;2022-11-15T05:17:45;101505.25;;;21.36;51.97
73240;BME280;61452;40.054;4.110;2022-11-15T05:23:05;101496.28;;;21.37;52.01
73240;BME280;61452;40.054;4.110;2022-11-15T05:28:26;101496.41;;;21.35;52.11
73240;BME280;61452;40.054;4.110;2022-11-15T05:33:49;101495.59;;;21.35;52.15
73240;BME280;61452;40.054;4.110;2022-11-15T05:39:10;101494.59;;;21.36;52.16
73240;BME280;61452;40.054;4.110;2022-11-15T05:44:31;101489.13;;;21.37;51.90
73240;BME280;61452;40.054;4.110;2022-11-15T05:49:53;101490.94;;;21.37;51.93
73240;BME280;61452;40.054;4.110;2022-11-15T05:55:14;101489.25;;;21.36;52.20
73240;BME280;61452;40.054;4.110;2022-11-15T06:00:35;101491.06;;;21.35;52.20
73240;BME280;61452;40.054;4.110;2022-11-15T06:05:56;101491.91;;;21.36;51.89
73240;BME280;61452;40.054;4.110;2022-11-15T06:11:17;101494.47;;;21.37;51.99
73240;BME280;61452;40.054;4.110;2022-11-15T06:16:38;101498.94;;;21.37;52.01
73240;BME280;61452;40.054;4.110;2022-11-15T06:21:59;101496.66;;;21.32;52.25
73240;BME280;61452;40.054;4.110;2022-11-15T06:27:20;101497.25;;;21.36;52.06
73240;BME280;61452;40.054;4.110;2022-11-15T06:32:40;101499.06;;;21.35;52.08
73240;BME280;61452;40.054;4.110;2022-11-15T06:38:04;101506.09;;;21.36;51.93
73240;BME280;61452;40.054;4.110;2022-11-15T06:43:24;101505.25;;;21.36;52.12
73240;BME280;61452;40.054;4.110;2022-11-15T06:48:45;101508.19;;;21.33;52.16
73240;BME280;61452;40.054;4.110;2022-11-15T06:54:06;101501.88;;;21.34;52.04
73240;BME280;61452;40.054;4.110;2022-11-15T06:59:26;101508.94;;;21.35;51.99
73240;BME280;61452;40.054;4.110;2022-11-15T07:04:47;101514.13;;;21.36;52.10
73240;BME280;61452;40.054;4.110;2022-11-15T07:10:08;101510.59;;;21.36;52.16
73240;BME280;61452;40.054;4.110;2022-11-15T07:15:29;101510.00;;;21.32;52.35
73240;BME280;61452;40.054;4.110;2022-11-15T07:20:49;101500.19;;;21.33;52.21
73240;BME280;61452;40.054;4.110;2022-11-15T07:26:10;101507.22;;;21.34;52.25
73240;BME280;61452;40.054;4.110;2022-11-15T07:31:30;101513.25;;;21.36;52.17
73240;BME280;61452;40.054;4.110;2022-11-15T07:36:51;101508.19;;;21.33;52.28
73240;BME280;61452;40.054;4.110;2022-11-15T07:42:12;101500.19;;;21.33;52.14
73240;BME280;61452;40.054;4.110;2022-11-15T07:47:52;101501.75;;;21.35;52.20
73240;BME280;61452;40.054;4.110;2022-11-15T07:53:12;101514.13;;;21.36;52.35
73240;BME280;61452;40.054;4.110;2022-11-15T07:58:33;101509.63;;;21.37;52.51
73240;BME280;61452;40.054;4.110;2022-11-15T08:03:54;101514.38;;;21.33;52.71
73240;BME280;61452;40.054;4.110;2022-11-15T08:09:14;101517.06;;;21.33;52.85
73240;BME280;61452;40.054;4.110;2022-11-15T08:14:35;101521.41;;;21.34;52.65
73240;BME280;61452;40.054;4.110;2022-11-15T08:19:57;101507.94;;;21.36;52.70
73240;BME280;61452;40.054;4.110;2022-11-15T08:25:18;101507.06;;;21.35;52.85
73240;BME280;61452;40.054;4.110;2022-11-15T08:30:40;101510.00;;;21.32;52.79
73240;BME280;61452;40.054;4.110;2022-11-15T08:36:02;101517.91;;;21.34;52.83
73240;BME280;61452;40.054;4.110;2022-11-15T08:46:46;101515.09;;;21.35;53.00
73240;BME280;61452;40.054;4.110;2022-11-15T08:52:07;101515.22;;;21.34;53.05
73240;BME280;61452;40.054;4.110;2022-11-15T08:57:29;101519.59;;;21.35;53.21
73240;BME280;61452;40.054;4.110;2022-11-15T09:02:50;101517.75;;;21.35;53.54
73240;BME280;61452;40.054;4.110;2022-11-15T09:08:11;101510.59;;;21.36;53.69
73240;BME280;61452;40.054;4.110;2022-11-15T09:13:53;101506.09;;;21.36;53.93
73240;BME280;61452;40.054;4.110;2022-11-15T09:19:13;101506.25;;;21.35;54.55
73240;BME280;61452;40.054;4.110;2022-11-15T09:24:35;101499.91;;;21.36;54.38
73240;BME280;61452;40.054;4.110;2022-11-15T09:29:55;101504.41;;;21.35;54.42
73240;BME280;61452;40.054;4.110;2022-11-15T09:35:16;101506.00;;;21.38;54.67
73240;BME280;61452;40.054;4.110;2022-11-15T09:40:37;101507.81;;;21.37;55.03
73240;BME280;61452;40.054;4.110;2022-11-15T09:46:11;101507.06;;;21.35;54.96
73240;BME280;61452;40.054;4.110;2022-11-15T09:51:37;101504.28;;;21.37;54.77
73240;BME280;61452;40.054;4.110;2022-11-15T09:56:50;101503.31;;;21.38;54.98
73240;BME280;61452;40.054;4.110;2022-11-15T10:07:25;101500.66;;;21.38;55.47
73240;BME280;61452;40.054;4.110;2022-11-15T10:12:29;101506.97;;;21.37;55.07
73240;BME280;61452;40.054;4.110;2022-11-15T10:17:55;101498.84;;;21.38;55.06
73240;BME280;61452;40.054;4.110;2022-11-15T10:23:06;101501.38;;;21.40;55.07
73240;BME280;61452;40.054;4.110;2022-11-15T10:33:33;101471.81;;;21.32;55.46
73240;BME280;61452;40.054;4.110;2022-11-15T10:49:17;101449.69;;;21.41;56.09
73240;BME280;61452;40.054;4.110;2022-11-15T10:59:33;101433.81;;;21.39;56.09
73240;BME280;61452;40.054;4.110;2022-11-15T11:04:50;101429.31;;;21.40;55.85
73240;BME280;61452;40.054;4.110;2022-11-15T11:15:43;101388.31;;;21.41;55.75
73240;BME280;61452;40.054;4.110;2022-11-15T11:21:04;101390.13;;;21.41;55.88
73240;BME280;61452;40.054;4.110;2022-11-15T11:32:22;101373.84;;;21.44;55.89
73240;BME280;61452;40.054;4.110;2022-11-15T11:43:08;101361.47;;;21.43;56.13
73240;BME280;61452;40.054;4.110;2022-11-15T11:48:37;101357.13;;;21.42;55.87
73240;BME280;61452;40.054;4.110;2022-11-15T11:59:43;101332.97;;;21.43;56.23
73240;BME280;61452;40.054;4.110;2022-11-15T12:04:53;101316.81;;;21.45;56.17
73240;BME280;61452;40.054;4.110;2022-11-15T12:10:04;101313.31;;;21.44;56.27
73240;BME280;61452;40.054;4.110;2022-11-15T12:15:23;101297.28;;;21.44;56.11
73240;BME280;61452;40.054;4.110;2022-11-15T12:20:30;101304.03;;;21.48;56.38
73240;BME280;61452;40.054;4.110;2022-11-15T12:26:11;101291.81;;;21.46;56.52
73240;BME280;61452;40.054;4.110;2022-11-15T12:36:38;101271.44;;;21.45;56.72
73240;BME280;61452;40.054;4.110;2022-11-15T12:41:44;101268.66;;;21.46;56.55
73240;BME280;61452;40.054;4.110;2022-11-15T13:02:21;101267.69;;;21.47;56.43
73240;BME280;61452;40.054;4.110;2022-11-15T13:17:53;101243.38;;;21.50;56.98
73240;BME280;61452;40.054;4.110;2022-11-15T13:33:25;101231.00;;;21.49;56.59
73240;BME280;61452;40.054;4.110;2022-11-15T13:38:38;101227.22;;;21.52;56.80
73240;BME280;61452;40.054;4.110;2022-11-15T13:43:40;101212.31;;;21.49;56.88
73240;BME280;61452;40.054;4.110;2022-11-15T13:48:44;101206.97;;;21.49;56.88
73240;BME280;61452;40.054;4.110;2022-11-15T13:54:03;101205.16;;;21.50;56.88
73240;BME280;61452;40.054;4.110;2022-11-15T13:59:27;101198.84;;;21.51;56.62
73240;BME280;61452;40.054;4.110;2022-11-15T14:04:30;101190.81;;;21.51;56.62
73240;BME280;61452;40.054;4.110;2022-11-15T14:09:38;101181.97;;;21.50;56.89
73240;BME280;61452;40.054;4.110;2022-11-15T14:14:45;101182.81;;;21.51;56.87
73240;BME280;61452;40.054;4.110;2022-11-15T14:19:48;101184.50;;;21.52;56.58
73240;BME280;61452;40.054;4.110;2022-11-15T14:25:16;101176.50;;;21.52;56.38
73240;BME280;61452;40.054;4.110;2022-11-15T14:30:19;101164.84;;;21.53;56.64
73240;BME280;61452;40.054;4.110;2022-11-15T14:35:22;101141.81;;;21.52;56.54
73240;BME280;61452;40.054;4.110;2022-11-15T14:40:25;101149.69;;;21.53;56.29
73240;BME280;61452;40.054;4.110;2022-11-15T14:45:27;101146.84;;;21.55;56.19
73240;BME280;61452;40.054;4.110;2022-11-15T14:50:29;101138.84;;;21.55;56.20
73240;BME280;61452;40.054;4.110;2022-11-15T14:55:34;101143.50;;;21.53;56.34
73240;BME280;61452;40.054;4.110;2022-11-15T15:00:39;101139.00;;;21.53;56.22
73240;BME280;61452;40.054;4.110;2022-11-15T15:05:43;101136.34;;;21.53;56.05
73240;BME280;61452;40.054;4.110;2022-11-15T15:10:45;101136.91;;;21.57;56.07
73240;BME280;61452;40.054;4.110;2022-11-15T15:15:49;101131.69;;;21.55;56.10
73240;BME280;61452;40.054;4.110;2022-11-15T15:20:56;101141.53;;;21.55;56.30
73240;BME280;61452;40.054;4.110;2022-11-15T15:26:01;101134.34;;;21.55;55.98
73240;BME280;61452;40.054;4.110;2022-11-15T15:31:04;101129.75;;;21.57;55.99
73240;BME280;61452;40.054;4.110;2022-11-15T15:36:15;101124.41;;;21.57;55.99
73240;BME280;61452;40.054;4.110;2022-11-15T15:41:18;101120.88;;;21.57;56.10
73240;BME280;61452;40.054;4.110;2022-11-15T15:46:21;101117.38;;;21.56;56.03
73240;BME280;61452;40.054;4.110;2022-11-15T15:51:23;101115.53;;;21.57;55.81
73240;BME280;61452;40.054;4.110;2022-11-15T15:56:25;101111.06;;;21.57;55.70
73240;BME280;61452;40.054;4.110;2022-11-15T16:01:27;101111.91;;;21.58;55.75
73240;BME280;61452;40.054;4.110;2022-11-15T16:06:35;101113.97;;;21.54;55.99
73240;BME280;61452;40.054;4.110;2022-11-15T16:11:37;101109.22;;;21.58;55.74
73240;BME280;61452;40.054;4.110;2022-11-15T16:16:39;101113.72;;;21.57;55.64
73240;BME280;61452;40.054;4.110;2022-11-15T16:21:42;101107.41;;;21.58;55.79
73240;BME280;61452;40.054;4.110;2022-11-15T16:26:45;101094.31;;;21.55;55.91
73240;BME280;61452;40.054;4.110;2022-11-15T16:31:48;101095.88;;;21.58;55.65
73240;BME280;61452;40.054;4.110;2022-11-15T16:36:50;101094.06;;;21.58;55.15
73240;BME280;61452;40.054;4.110;2022-11-15T16:41:53;101094.06;;;21.58;55.38
73240;BME280;61452;40.054;4.110;2022-11-15T16:46:55;101102.91;;;21.59;55.47
73240;BME280;61452;40.054;4.110;2022-11-15T16:51:57;101101.22;;;21.58;55.49
73240;BME280;61452;40.054;4.110;2022-11-15T16:56:59;101101.09;;;21.59;55.63
73240;BME280;61452;40.054;4.110;2022-11-15T17:02:01;101096.72;;;21.58;55.42
73240;BME280;61452;40.054;4.110;2022-11-15T17:07:03;101101.94;;;21.60;55.38
73240;BME280;61452;40.054;4.110;2022-11-15T17:12:05;101099.25;;;21.60;55.48
73240;BME280;61452;40.054;4.110;2022-11-15T17:17:08;101107.41;;;21.58;55.52
73240;BME280;61452;40.054;4.110;2022-11-15T17:22:10;101105.41;;;21.60;55.37
73240;BME280;61452;40.054;4.110;2022-11-15T17:27:13;101106.25;;;21.61;55.09
73240;BME280;61452;40.054;4.110;2022-11-15T17:32:15;101109.78;;;21.61;55.24
73240;BME280;61452;40.054;4.110;2022-11-15T17:37:18;101116.25;;;21.59;55.49
73240;BME280;61452;40.054;4.110;2022-11-15T17:42:20;101114.44;;;21.59;55.37
73240;BME280;61452;40.054;4.110;2022-11-15T17:47:22;101104.44;;;21.61;55.30
73240;BME280;61452;40.054;4.110;2022-11-15T17:52:24;101106.25;;;21.61;55.35
73240;BME280;61452;40.054;4.110;2022-11-15T17:57:26;101116.94;;;21.61;55.69
73240;BME280;61452;40.054;4.110;2022-11-15T18:02:29;101108.25;;;21.59;55.85
73240;BME280;61452;40.054;4.110;2022-11-15T18:07:31;101110.91;;;21.59;55.83
73240;BME280;61452;40.054;4.110;2022-11-15T18:12:33;101115.13;;;21.61;55.59
73240;BME280;61452;40.054;4.110;2022-11-15T18:17:35;101114.28;;;21.61;55.51
73240;BME280;61452;40.054;4.110;2022-11-15T18:22:38;101111.78;;;21.59;55.67
73240;BME280;61452;40.054;4.110;2022-11-15T18:27:41;101107.28;;;21.60;55.74
73240;BME280;61452;40.054;4.110;2022-11-15T18:32:43;101117.78;;;21.61;55.62
73240;BME280;61452;40.054;4.110;2022-11-15T18:37:45;101122.28;;;21.61;55.75
73240;BME280;61452;40.054;4.110;2022-11-15T18:42:48;101116.09;;;21.60;55.86
73240;BME280;61452;40.054;4.110;2022-11-15T18:47:50;101116.09;;;21.60;55.93
73240;BME280;61452;40.054;4.110;2022-11-15T18:52:52;101107.28;;;21.60;55.59
73240;BME280;61452;40.054;4.110;2022-11-15T18:57:55;101100.78;;;21.62;55.60
73240;BME280;61452;40.054;4.110;2022-11-15T19:02:57;101099.66;;;21.55;55.46
73240;BME280;61452;40.054;4.110;2022-11-15T19:07:59;101084.63;;;21.54;55.55
73240;BME280;61452;40.054;4.110;2022-11-15T19:13:01;101093.06;;;21.59;55.52
73240;BME280;61452;40.054;4.110;2022-11-15T19:18:03;101083.09;;;21.61;55.51
73240;BME280;61452;40.054;4.110;2022-11-15T19:23:05;101086.59;;;21.62;55.49
73240;BME280;61452;40.054;4.110;2022-11-15T19:28:08;101085.75;;;21.61;55.64
73240;BME280;61452;40.054;4.110;2022-11-15T19:33:10;101077.91;;;21.60;55.74
73240;BME280;61452;40.054;4.110;2022-11-15T19:38:12;101069.06;;;21.59;55.67
73240;BME280;61452;40.054;4.110;2022-11-15T19:43:16;101070.59;;;21.62;55.60
73240;BME280;61452;40.054;4.110;2022-11-15T19:48:18;101068.75;;;21.62;55.43
73240;BME280;61452;40.054;4.110;2022-11-15T19:53:22;101070.72;;;21.60;55.23
73240;BME280;61452;40.054;4.110;2022-11-15T19:58:27;101063.72;;;21.59;55.17
73240;BME280;61452;40.054;4.110;2022-11-15T20:03:32;101057.38;;;21.60;55.12
73240;BME280;61452;40.054;4.110;2022-11-15T20:08:36;101063.41;;;21.62;55.06
73240;BME280;61452;40.054;4.110;2022-11-15T20:13:39;101062.56;;;21.62;55.10
73240;BME280;61452;40.054;4.110;2022-11-15T20:18:41;101061.88;;;21.60;55.18
73240;BME280;61452;40.054;4.110;2022-11-15T20:23:44;101064.56;;;21.60;55.28
73240;BME280;61452;40.054;4.110;2022-11-15T20:28:48;101058.22;;;21.61;55.21
73240;BME280;61452;40.054;4.110;2022-11-15T20:33:50;101046.56;;;21.62;55.13
73240;BME280;61452;40.054;4.110;2022-11-15T20:38:57;101065.25;;;21.62;55.44
73240;BME280;61452;40.054;4.110;2022-11-15T20:43:59;101064.41;;;21.61;55.55
73240;BME280;61452;40.054;4.110;2022-11-15T20:49:04;101070.72;;;21.60;55.60
73240;BME280;61452;40.054;4.110;2022-11-15T20:54:07;101066.09;;;21.62;55.44
73240;BME280;61452;40.054;4.110;2022-11-15T20:59:09;101069.59;;;21.63;55.15
73240;BME280;61452;40.054;4.110;2022-11-15T21:04:12;101076.91;;;21.61;55.25
73240;BME280;61452;40.054;4.110;2022-11-15T21:09:14;101082.25;;;21.61;55.24
73240;BME280;61452;40.054;4.110;2022-11-15T21:14:34;101075.06;;;21.61;54.69
73240;BME280;61452;40.054;4.110;2022-11-15T21:19:36;101067.06;;;21.61;54.92
73240;BME280;61452;40.054;4.110;2022-11-15T21:24:39;101059.91;;;21.62;55.07
73240;BME280;61452;40.054;4.110;2022-11-15T21:29:41;101045.88;;;21.60;55.13
73240;BME280;61452;40.054;4.110;2022-11-15T21:34:46;101042.34;;;21.59;55.32
73240;BME280;61452;40.054;4.110;2022-11-15T21:39:48;101033.63;;;21.57;55.09
73240;BME280;61452;40.054;4.110;2022-11-15T21:44:50;101026.47;;;21.58;55.09
73240;BME280;61452;40.054;4.110;2022-11-15T21:49:52;101026.19;;;21.61;54.74
73240;BME280;61452;40.054;4.110;2022-11-15T21:54:54;101018.16;;;21.61;54.56
73240;BME280;61452;40.054;4.110;2022-11-15T21:59:56;101018.16;;;21.61;54.64
73240;BME280;61452;40.054;4.110;2022-11-15T22:05:17;101015.66;;;21.59;54.87
73240;BME280;61452;40.054;4.110;2022-11-15T22:10:19;101012.16;;;21.59;54.60
73240;BME280;61452;40.054;4.110;2022-11-15T22:15:21;101007.50;;;21.61;54.43
73240;BME280;61452;40.054;4.110;2022-11-15T22:20:25;101004.81;;;21.61;54.49
73240;BME280;61452;40.054;4.110;2022-11-15T22:25:45;101011.97;;;21.60;54.64
73240;BME280;61452;40.054;4.110;2022-11-15T22:30:49;101015.78;;;21.58;54.57
73240;BME280;61452;40.054;4.110;2022-11-15T22:35:52;101019.00;;;21.61;54.46
73240;BME280;61452;40.054;4.110;2022-11-15T22:40:54;101008.34;;;21.61;54.39
73240;BME280;61452;40.054;4.110;2022-11-15T22:45:58;100992.47;;;21.60;54.25
73240;BME280;61452;40.054;4.110;2022-11-15T22:51:01;101005.81;;;21.60;54.22
73240;BME280;61452;40.054;4.110;2022-11-15T22:56:04;100999.78;;;21.58;54.42
73240;BME280;61452;40.054;4.110;2022-11-15T23:01:18;100984.47;;;21.60;54.31
73240;BME280;61452;40.054;4.110;2022-11-15T23:06:20;100973.63;;;21.61;54.25
73240;BME280;61452;40.054;4.110;2022-11-15T23:11:22;100980.78;;;21.61;54.02
73240;BME280;61452;40.054;4.110;2022-11-15T23:16:43;100976.59;;;21.58;54.15
73240;BME280;61452;40.054;4.110;2022-11-15T23:21:45;100966.75;;;21.59;54.14
73240;BME280;61452;40.054;4.110;2022-11-15T23:27:06;100962.28;;;21.59;54.13
73240;BME280;61452;40.054;4.110;2022-11-15T23:32:09;100976.28;;;21.61;53.99
73240;BME280;61452;40.054;4.110;2022-11-15T23:37:29;100976.47;;;21.60;54.39
73240;BME280;61452;40.054;4.110;2022-11-15T23:42:31;100965.06;;;21.58;54.47
73240;BME280;61452;40.054;4.110;2022-11-15T23:47:33;100970.28;;;21.59;54.34
73240;BME280;61452;40.054;4.110;2022-11-15T23:52:36;100969.25;;;21.60;54.32
73240;BME280;61452;40.054;4.110;2022-11-15T23:57:38;100961.25;;;21.60;54.53
